createdAt,value
2019-02-11T00:01:36.855Z,7.30
2019-02-11T00:04:08.715Z,7.30
2019-02-11T00:06:41.901Z,7.30
2019-02-11T00:09:13.885Z,7.30
2019-02-11T00:11:45.731Z,7.40
2019-02-11T00:14:17.569Z,7.40
2019-02-11T00:16:49.417Z,7.40
2019-02-11T00:19:21.299Z,7.40
2019-02-11T00:21:53.145Z,7.40
2019-02-11T00:24:25.125Z,7.40
2019-02-11T00:26:57.202Z,7.40
2019-02-11T00:29:28.964Z,7.40
2019-02-11T00:32:01.087Z,7.40
2019-02-11T00:34:33.027Z,7.40
2019-02-11T00:37:05.155Z,7.40
2019-02-11T00:39:36.937Z,7.40
2019-02-11T00:42:08.895Z,7.40
2019-02-11T00:44:40.773Z,7.40
2019-02-11T00:47:12.737Z,7.40
2019-02-11T00:49:44.871Z,7.50
2019-02-11T00:52:16.667Z,7.50
2019-02-11T00:54:48.591Z,7.50
2019-02-11T00:57:20.452Z,7.50
2019-02-11T00:59:52.407Z,7.50
2019-02-11T01:02:24.308Z,7.50
2019-02-11T01:04:56.132Z,7.50
2019-02-11T01:07:28.177Z,7.60
2019-02-11T01:09:59.944Z,7.60
2019-02-11T01:12:31.843Z,7.70
2019-02-11T01:15:03.835Z,7.70
2019-02-11T01:17:35.761Z,7.70
2019-02-11T01:20:10.879Z,7.70
2019-02-11T01:22:42.834Z,7.70
2019-02-11T01:25:14.674Z,7.70
2019-02-11T01:27:46.504Z,7.70
2019-02-11T01:30:18.412Z,7.70
2019-02-11T01:32:50.359Z,7.80
2019-02-11T01:35:22.288Z,7.80
2019-02-11T01:37:54.210Z,7.80
2019-02-11T01:40:26.311Z,7.80
2019-02-11T01:42:58.188Z,7.80
2019-02-11T01:45:30.067Z,7.80
2019-02-11T01:48:02.044Z,7.90
2019-02-11T01:50:33.931Z,6.90
2019-02-11T01:53:05.779Z,7.90
2019-02-11T01:55:37.591Z,7.90
2019-02-11T01:58:09.443Z,7.90
2019-02-11T02:00:41.341Z,7.90
2019-02-11T02:03:13.363Z,7.90
2019-02-11T02:05:45.190Z,7.90
2019-02-11T02:08:16.998Z,7.90
2019-02-11T02:10:48.957Z,7.90
2019-02-11T02:13:21.103Z,7.90
2019-02-11T02:15:53.416Z,7.90
2019-02-11T02:18:25.409Z,7.90
2019-02-11T02:20:57.249Z,7.90
2019-02-11T02:23:29.057Z,7.90
2019-02-11T02:26:01.043Z,7.90
2019-02-11T02:28:33.134Z,8.00
2019-02-11T02:31:05.076Z,8.00
2019-02-11T02:33:37.140Z,7.90
2019-02-11T02:36:08.959Z,7.90
2019-02-11T02:38:42.084Z,7.90
2019-02-11T02:41:13.910Z,7.90
2019-02-11T02:43:54.907Z,7.90
2019-02-11T02:46:19.184Z,7.90
2019-02-11T02:48:51.109Z,7.80
2019-02-11T02:51:23.036Z,7.80
2019-02-11T02:53:54.884Z,7.80
2019-02-11T02:56:26.870Z,7.80
2019-02-11T02:58:58.692Z,7.80
2019-02-11T03:01:30.507Z,7.80
2019-02-11T03:04:02.293Z,7.80
2019-02-11T03:06:34.240Z,7.80
2019-02-11T03:09:06.907Z,7.80
2019-02-11T03:11:38.800Z,7.80
2019-02-11T03:14:10.633Z,7.80
2019-02-11T03:16:42.439Z,7.80
2019-02-11T03:19:14.252Z,7.80
2019-02-11T03:21:46.106Z,7.80
2019-02-11T03:24:17.906Z,9.40
2019-02-11T03:26:49.749Z,7.80
2019-02-11T03:29:21.541Z,7.70
2019-02-11T03:31:53.651Z,7.80
2019-02-11T03:34:25.481Z,7.80
2019-02-11T03:36:57.344Z,7.80
2019-02-11T03:39:29.144Z,7.80
2019-02-11T03:42:01.608Z,7.80
2019-02-11T03:44:33.996Z,7.80
2019-02-11T03:47:05.882Z,7.80
2019-02-11T03:49:37.838Z,7.90
2019-02-11T03:52:10.003Z,7.90
2019-02-11T03:54:41.916Z,7.90
2019-02-11T03:57:13.721Z,7.90
2019-02-11T03:59:45.546Z,7.80
2019-02-11T04:02:17.554Z,7.90
2019-02-11T04:04:49.515Z,7.90
2019-02-11T04:07:21.320Z,7.90
2019-02-11T04:09:53.162Z,7.90
2019-02-11T04:12:25.043Z,7.90
2019-02-11T04:14:56.845Z,7.90
2019-02-11T04:17:28.723Z,7.90
2019-02-11T04:20:00.646Z,7.90
2019-02-11T04:22:32.448Z,7.90
2019-02-11T04:25:04.273Z,7.90
2019-02-11T04:27:36.142Z,7.90
2019-02-11T04:30:08.955Z,7.90
2019-02-11T04:32:40.733Z,7.90
2019-02-11T04:35:12.965Z,7.80
2019-02-11T04:37:44.967Z,7.90
2019-02-11T04:40:16.857Z,7.90
2019-02-11T04:42:48.628Z,7.90
2019-02-11T04:45:20.508Z,7.90
2019-02-11T04:47:52.314Z,7.90
2019-02-11T04:50:24.353Z,7.90
2019-02-11T04:52:56.153Z,7.90
2019-02-11T04:55:27.972Z,7.90
2019-02-11T04:57:59.925Z,7.80
2019-02-11T05:00:33.586Z,7.90
2019-02-11T05:03:05.491Z,7.90
2019-02-11T05:05:37.301Z,7.90
2019-02-11T05:08:09.261Z,7.90
2019-02-11T05:10:41.062Z,7.90
2019-02-11T05:13:12.880Z,7.90
2019-02-11T05:15:44.800Z,7.90
2019-02-11T05:18:17.077Z,7.90
2019-02-11T05:20:49.226Z,7.90
2019-02-11T05:23:21.060Z,7.80
2019-02-11T05:25:52.815Z,7.80
2019-02-11T05:28:35.839Z,7.80
2019-02-11T05:31:07.746Z,7.80
2019-02-11T05:33:39.765Z,7.70
2019-02-11T05:36:11.594Z,7.80
2019-02-11T05:38:43.536Z,7.70
2019-02-11T05:41:15.356Z,7.80
2019-02-11T05:43:47.152Z,7.80
2019-02-11T05:46:18.971Z,7.80
2019-02-11T05:48:50.777Z,7.80
2019-02-11T05:51:22.837Z,7.80
2019-02-11T05:53:54.936Z,7.80
2019-02-11T05:56:26.830Z,7.80
2019-02-11T05:58:58.708Z,7.90
2019-02-11T06:01:30.499Z,7.80
2019-02-11T06:04:02.534Z,7.90
2019-02-11T06:06:34.334Z,7.80
2019-02-11T06:09:07.275Z,7.90
2019-02-11T06:11:39.090Z,7.90
2019-02-11T06:14:10.934Z,7.90
2019-02-11T06:16:42.718Z,7.90
2019-02-11T06:19:14.529Z,7.90
2019-02-11T06:21:46.583Z,7.90
2019-02-11T06:24:18.456Z,7.90
2019-02-11T06:26:50.235Z,7.90
2019-02-11T06:29:22.824Z,7.80
2019-02-11T06:31:54.795Z,7.90
2019-02-11T06:34:26.670Z,7.80
2019-02-11T06:36:58.469Z,7.90
2019-02-11T06:39:30.274Z,7.80
2019-02-11T06:42:02.040Z,7.80
2019-02-11T06:44:34.008Z,7.90
2019-02-11T06:47:05.796Z,7.80
2019-02-11T06:49:37.716Z,7.90
2019-02-11T06:52:09.593Z,7.80
2019-02-11T06:54:41.535Z,7.80
2019-02-11T06:57:13.419Z,7.80
2019-02-11T06:59:45.287Z,8.60
2019-02-11T07:02:18.025Z,7.60
2019-02-11T07:04:50.057Z,7.80
2019-02-11T07:07:21.909Z,7.80
2019-02-11T07:09:53.731Z,7.80
2019-02-11T07:12:25.713Z,7.80
2019-02-11T07:14:57.787Z,7.80
2019-02-11T07:17:29.963Z,7.80
2019-02-11T07:20:01.987Z,7.80
2019-02-11T07:22:33.777Z,7.70
2019-02-11T07:25:06.547Z,7.70
2019-02-11T07:27:38.473Z,7.70
2019-02-11T07:30:11.302Z,7.70
2019-02-11T07:32:50.821Z,7.70
2019-02-11T07:35:34.446Z,7.60
2019-02-11T07:38:14.335Z,7.60
2019-02-11T07:40:48.795Z,7.60
2019-02-11T07:43:41.310Z,7.60
2019-02-11T07:46:43.428Z,7.60
2019-02-11T07:49:16.923Z,7.60
2019-02-11T07:51:52.629Z,7.70
2019-02-11T07:54:26.943Z,7.70
2019-02-11T07:56:59.024Z,7.70
2019-02-11T07:59:32.759Z,7.80
2019-02-11T08:02:07.979Z,7.80
2019-02-11T08:04:40.156Z,7.80
2019-02-11T08:07:13.748Z,7.80
2019-02-11T08:09:49.198Z,7.90
2019-02-11T08:12:23.971Z,7.90
2019-02-11T08:14:56.356Z,8.00
2019-02-11T08:17:31.217Z,8.00
2019-02-11T08:20:07.231Z,8.00
2019-02-11T08:22:41.779Z,8.00
2019-02-11T08:25:15.243Z,8.10
2019-02-11T08:27:47.263Z,8.10
2019-02-11T08:30:19.139Z,8.10
2019-02-11T08:32:53.554Z,8.20
2019-02-11T08:35:25.530Z,8.20
2019-02-11T08:37:57.741Z,8.30
2019-02-11T08:40:29.985Z,8.30
2019-02-11T08:43:06.231Z,8.30
2019-02-11T08:45:46.860Z,8.30
2019-02-11T08:48:13.317Z,8.40
2019-02-11T08:50:46.626Z,8.40
2019-02-11T08:53:18.495Z,8.40
2019-02-11T08:55:50.763Z,8.50
2019-02-11T08:58:25.461Z,8.40
2019-02-11T09:00:57.412Z,8.40
2019-02-11T09:03:29.491Z,8.50
2019-02-11T09:06:01.756Z,8.50
2019-02-11T09:08:33.942Z,8.60
2019-02-11T09:11:06.161Z,8.70
2019-02-11T09:13:38.141Z,8.70
2019-02-11T09:16:10.263Z,8.70
2019-02-11T09:18:44.763Z,8.80
2019-02-11T09:21:16.013Z,8.80
2019-02-11T09:23:48.050Z,8.90
2019-02-11T09:26:21.386Z,8.90
2019-02-11T09:28:53.277Z,9.00
2019-02-11T09:31:25.147Z,9.00
2019-02-11T09:33:59.356Z,9.10
2019-02-11T09:36:31.220Z,9.10
2019-02-11T09:39:06.161Z,9.10
2019-02-11T09:41:38.182Z,9.20
2019-02-11T09:44:10.227Z,9.10
2019-02-11T09:46:42.267Z,9.10
2019-02-11T09:49:14.250Z,9.40
2019-02-11T09:51:48.861Z,9.20
2019-02-11T09:54:20.741Z,9.20
2019-02-11T09:56:54.030Z,9.30
2019-02-11T09:59:25.928Z,9.60
2019-02-11T10:02:00.936Z,9.80
2019-02-11T10:04:32.838Z,10.00
2019-02-11T10:07:04.695Z,10.10
2019-02-11T10:09:36.739Z,10.20
2019-02-11T10:12:08.631Z,10.20
2019-02-11T10:14:41.201Z,10.20
2019-02-11T10:17:15.001Z,10.30
2019-02-11T10:19:47.021Z,11.20
2019-02-11T10:22:19.230Z,10.30
2019-02-11T10:24:53.653Z,10.40
2019-02-11T10:27:25.748Z,10.50
2019-02-11T10:29:57.615Z,10.50
2019-02-11T10:32:30.659Z,10.60
2019-02-11T10:35:03.697Z,10.60
2019-02-11T10:37:35.697Z,10.60
2019-02-11T10:40:09.958Z,10.60
2019-02-11T10:42:43.155Z,10.50
2019-02-11T10:45:18.329Z,10.40
2019-02-11T10:47:50.299Z,10.40
2019-02-11T10:50:23.385Z,10.30
2019-02-11T10:52:56.434Z,10.20
2019-02-11T10:55:28.684Z,10.20
2019-02-11T10:58:00.907Z,10.10
2019-02-11T11:00:32.832Z,10.10
2019-02-11T11:03:04.904Z,10.00
2019-02-11T11:05:36.865Z,10.00
2019-02-11T11:08:10.407Z,9.90
2019-02-11T11:10:42.335Z,9.90
2019-02-11T11:13:14.293Z,9.90
2019-02-11T11:15:46.120Z,9.90
2019-02-11T11:18:18.176Z,9.90
2019-02-11T11:20:51.493Z,9.80
2019-02-11T11:23:24.938Z,9.90
2019-02-11T11:25:56.737Z,10.00
2019-02-11T11:28:31.171Z,9.90
2019-02-11T11:31:04.816Z,9.90
2019-02-11T11:33:37.071Z,11.00
2019-02-11T11:36:09.055Z,10.00
2019-02-11T11:38:40.956Z,9.90
2019-02-11T11:41:12.858Z,10.00
2019-02-11T11:43:44.735Z,9.90
2019-02-11T11:46:16.709Z,10.00
2019-02-11T11:48:48.688Z,10.00
2019-02-11T11:51:22.170Z,10.00
2019-02-11T11:53:55.381Z,10.00
2019-02-11T11:56:29.670Z,10.20
2019-02-11T11:59:04.526Z,10.30
2019-02-11T12:01:36.621Z,10.50
2019-02-11T12:04:08.476Z,10.90
2019-02-11T12:06:42.040Z,11.30
2019-02-11T12:09:13.929Z,11.90
2019-02-11T12:11:45.818Z,12.60
2019-02-11T12:14:17.874Z,13.40
2019-02-11T12:16:56.800Z,14.00
2019-02-11T12:19:23.463Z,14.70
2019-02-11T12:21:55.597Z,15.30
2019-02-11T12:24:27.539Z,15.60
2019-02-11T12:26:59.387Z,15.70
2019-02-11T12:29:31.259Z,15.60
2019-02-11T12:32:03.310Z,15.40
2019-02-11T12:34:35.168Z,15.20
2019-02-11T12:37:09.963Z,14.90
2019-02-11T12:39:41.837Z,14.70
2019-02-11T12:42:14.005Z,14.40
2019-02-11T12:44:46.202Z,14.10
2019-02-11T12:47:18.072Z,13.70
2019-02-11T12:49:50.127Z,13.30
2019-02-11T12:52:22.199Z,13.00
2019-02-11T12:54:54.218Z,12.60
2019-02-11T12:57:26.245Z,12.30
2019-02-11T12:59:58.324Z,12.00
2019-02-11T13:02:30.242Z,11.60
2019-02-11T13:05:02.212Z,11.40
2019-02-11T13:07:34.262Z,11.30
2019-02-11T13:10:07.734Z,11.20
2019-02-11T13:12:39.929Z,11.20
2019-02-11T13:15:12.467Z,11.20
2019-02-11T13:17:52.194Z,11.20
2019-02-11T13:20:24.353Z,11.20
2019-02-11T13:22:56.393Z,11.30
2019-02-11T13:25:28.235Z,11.20
2019-02-11T13:28:00.233Z,11.20
2019-02-11T13:30:32.607Z,11.20
2019-02-11T13:33:04.500Z,11.20
2019-02-11T13:35:36.440Z,11.00
2019-02-11T13:38:08.459Z,11.10
2019-02-11T13:40:40.647Z,11.00
2019-02-11T13:43:12.559Z,11.00
2019-02-11T13:45:44.575Z,11.10
2019-02-11T13:48:16.860Z,11.20
2019-02-11T13:50:48.932Z,11.20
2019-02-11T13:53:20.810Z,11.20
2019-02-11T13:55:52.919Z,11.20
2019-02-11T13:58:25.242Z,11.20
2019-02-11T14:00:57.522Z,11.20
2019-02-11T14:03:29.686Z,11.40
2019-02-11T14:06:01.658Z,11.60
2019-02-11T14:08:33.824Z,11.90
2019-02-11T14:11:06.004Z,12.30
2019-02-11T14:13:37.895Z,12.70
2019-02-11T14:16:09.851Z,13.10
2019-02-11T14:18:41.963Z,13.40
2019-02-11T14:21:13.884Z,13.60
2019-02-11T14:23:45.909Z,13.80
2019-02-11T14:26:19.497Z,13.90
2019-02-11T14:28:51.632Z,14.00
2019-02-11T14:31:23.711Z,14.00
2019-02-11T14:33:55.863Z,14.00
2019-02-11T14:36:27.674Z,14.00
2019-02-11T14:38:59.797Z,13.90
2019-02-11T14:41:31.662Z,13.90
2019-02-11T14:44:04.845Z,13.80
2019-02-11T14:46:36.719Z,13.70
2019-02-11T14:49:09.069Z,13.50
2019-02-11T14:51:41.040Z,13.30
2019-02-11T14:54:13.151Z,13.20
2019-02-11T14:56:45.090Z,13.10
2019-02-11T14:59:17.331Z,13.10
2019-02-11T15:01:49.274Z,13.00
2019-02-11T15:04:21.293Z,13.00
2019-02-11T15:06:53.223Z,13.10
2019-02-11T15:09:25.183Z,13.20
2019-02-11T15:11:57.243Z,13.20
2019-02-11T15:14:29.144Z,13.20
2019-02-11T15:17:01.206Z,13.10
2019-02-11T15:19:33.304Z,13.00
2019-02-11T15:22:05.275Z,12.80
2019-02-11T15:24:37.673Z,12.70
2019-02-11T15:27:17.033Z,12.50
2019-02-11T15:29:45.150Z,12.40
2019-02-11T15:32:17.099Z,12.30
2019-02-11T15:34:49.402Z,12.10
2019-02-11T15:37:21.501Z,12.00
2019-02-11T15:39:53.557Z,11.90
2019-02-11T15:42:25.364Z,11.80
2019-02-11T15:44:57.391Z,11.70
2019-02-11T15:47:29.367Z,11.60
2019-02-11T15:50:01.296Z,11.50
2019-02-11T15:52:33.560Z,11.50
2019-02-11T15:55:06.417Z,11.40
2019-02-11T15:57:38.492Z,11.40
2019-02-11T16:00:16.702Z,11.30
2019-02-11T16:02:48.913Z,11.20
2019-02-11T16:05:21.165Z,11.20
2019-02-11T16:07:53.340Z,11.10
2019-02-11T16:10:27.063Z,11.00
2019-02-11T16:12:59.035Z,10.90
2019-02-11T16:15:30.930Z,10.90
2019-02-11T16:18:02.961Z,10.90
2019-02-11T16:20:35.068Z,10.80
2019-02-11T16:23:07.004Z,10.70
2019-02-11T16:25:38.988Z,10.70
2019-02-11T16:28:11.003Z,10.60
2019-02-11T16:30:43.235Z,10.60
2019-02-11T16:33:15.298Z,10.50
2019-02-11T16:35:47.159Z,10.40
2019-02-11T16:38:19.007Z,10.30
2019-02-11T16:40:50.880Z,10.50
2019-02-11T16:43:23.056Z,10.30
2019-02-11T16:45:55.085Z,10.20
2019-02-11T16:48:27.077Z,10.20
2019-02-11T16:50:59.529Z,10.10
2019-02-11T16:53:31.419Z,10.00
2019-02-11T16:56:03.382Z,10.00
2019-02-11T16:58:35.312Z,10.00
2019-02-11T17:01:07.428Z,10.00
2019-02-11T17:03:39.290Z,9.90
2019-02-11T17:06:11.359Z,10.00
2019-02-11T17:08:43.269Z,10.00
2019-02-11T17:11:15.306Z,10.00
2019-02-11T17:13:47.182Z,10.00
2019-02-11T17:16:19.269Z,9.90
2019-02-11T17:18:51.462Z,9.80
2019-02-11T17:21:23.350Z,9.90
2019-02-11T17:23:55.228Z,9.90
2019-02-11T17:26:27.249Z,9.80
2019-02-11T17:28:59.126Z,9.80
2019-02-11T17:31:31.193Z,9.70
2019-02-11T17:34:04.599Z,9.70
2019-02-11T17:36:36.497Z,9.60
2019-02-11T17:39:10.100Z,9.60
2019-02-11T17:41:42.029Z,9.60
2019-02-11T17:44:13.863Z,9.50
2019-02-11T17:46:45.960Z,9.50
2019-02-11T17:49:18.159Z,9.50
2019-02-11T17:51:50.370Z,9.50
2019-02-11T17:54:22.730Z,9.50
2019-02-11T17:56:55.027Z,9.40
2019-02-11T17:59:27.413Z,9.40
2019-02-11T18:01:59.373Z,9.30
2019-02-11T18:04:31.371Z,9.20
2019-02-11T18:07:03.317Z,9.20
2019-02-11T18:09:35.147Z,9.10
2019-02-11T18:12:07.100Z,9.10
2019-02-11T18:14:39.036Z,9.10
2019-02-11T18:17:11.036Z,9.10
2019-02-11T18:19:43.103Z,9.10
2019-02-11T18:22:15.479Z,9.00
2019-02-11T18:24:47.329Z,9.00
2019-02-11T18:27:19.315Z,9.00
2019-02-11T18:29:51.415Z,8.90
2019-02-11T18:32:23.315Z,8.80
2019-02-11T18:34:55.311Z,8.80
2019-02-11T18:37:27.336Z,8.70
2019-02-11T18:39:59.280Z,8.70
2019-02-11T18:42:31.399Z,8.60
2019-02-11T18:45:03.381Z,8.60
2019-02-11T18:47:36.763Z,8.50
2019-02-11T18:50:13.628Z,8.40
2019-02-11T18:52:49.674Z,8.40
2019-02-11T18:55:25.850Z,8.30
2019-02-11T18:58:07.597Z,8.30
2019-02-11T19:00:42.913Z,8.20
2019-02-11T19:03:17.270Z,8.10
2019-02-11T19:05:54.230Z,8.10
2019-02-11T19:08:22.918Z,8.00
2019-02-11T19:10:55.049Z,8.00
2019-02-11T19:13:28.286Z,8.00
2019-02-11T19:16:00.287Z,7.90
2019-02-11T19:18:32.238Z,7.90
2019-02-11T19:21:05.913Z,7.80
2019-02-11T19:23:37.758Z,7.80
2019-02-11T19:26:10.036Z,7.70
2019-02-11T19:28:41.966Z,7.70
2019-02-11T19:31:14.259Z,7.60
2019-02-11T19:33:46.287Z,7.60
2019-02-11T19:36:18.444Z,7.60
2019-02-11T19:38:50.597Z,7.50
2019-02-11T19:41:22.911Z,7.50
2019-02-11T19:43:57.877Z,7.40
2019-02-11T19:46:29.986Z,7.40
2019-02-11T19:49:02.153Z,7.40
2019-02-11T19:51:34.246Z,7.30
2019-02-11T19:54:06.718Z,7.30
2019-02-11T19:56:38.662Z,7.30
2019-02-11T19:59:13.838Z,7.30
2019-02-11T20:01:46.007Z,7.30
2019-02-11T20:04:19.367Z,7.30
2019-02-11T20:06:51.469Z,7.30
2019-02-11T20:09:32.711Z,7.30
2019-02-11T20:12:03.020Z,7.40
2019-02-11T20:14:35.523Z,7.40
2019-02-11T20:17:07.963Z,7.20
2019-02-11T20:19:46.927Z,7.40
2019-02-11T20:22:18.910Z,7.40
2019-02-11T20:24:51.060Z,7.40
2019-02-11T20:27:23.010Z,7.50
2019-02-11T20:29:55.392Z,7.50
2019-02-11T20:32:27.229Z,7.50
2019-02-11T20:34:59.490Z,7.60
2019-02-11T20:37:31.478Z,7.60
2019-02-11T20:40:04.660Z,7.60
2019-02-11T20:42:36.624Z,7.60
2019-02-11T20:45:12.646Z,7.60
2019-02-11T20:47:44.792Z,7.60
2019-02-11T20:50:16.949Z,7.60
2019-02-11T20:52:49.109Z,7.60
2019-02-11T20:55:21.222Z,7.60
2019-02-11T20:57:55.471Z,7.60
2019-02-11T21:00:27.799Z,7.60
2019-02-11T21:03:07.902Z,7.60
2019-02-11T21:05:33.695Z,7.60
2019-02-11T21:08:05.928Z,7.60
2019-02-11T21:10:38.135Z,7.60
2019-02-11T21:13:10.189Z,7.60
2019-02-11T21:15:42.104Z,7.70
2019-02-11T21:18:14.128Z,7.60
2019-02-11T21:20:46.146Z,7.60
2019-02-11T21:23:18.173Z,7.70
2019-02-11T21:25:50.277Z,7.60
2019-02-11T21:28:22.188Z,7.60
2019-02-11T21:30:54.715Z,7.60
2019-02-11T21:33:26.827Z,7.60
2019-02-11T21:35:58.680Z,7.60
2019-02-11T21:38:30.773Z,7.60
2019-02-11T21:41:02.917Z,7.60
2019-02-11T21:43:35.026Z,7.60
2019-02-11T21:46:06.963Z,7.60
2019-02-11T21:48:39.037Z,7.60
2019-02-11T21:51:10.895Z,7.60
2019-02-11T21:53:42.905Z,7.70
2019-02-11T21:56:14.992Z,7.60
2019-02-11T21:58:47.055Z,7.70
2019-02-11T22:01:19.131Z,7.60
2019-02-11T22:03:51.258Z,7.70
2019-02-11T22:06:23.459Z,7.70
2019-02-11T22:08:55.574Z,7.70
2019-02-11T22:11:27.542Z,7.80
2019-02-11T22:13:59.381Z,7.90
2019-02-11T22:16:31.706Z,7.80
2019-02-11T22:19:03.536Z,7.80
2019-02-11T22:21:35.763Z,7.90
2019-02-11T22:24:08.855Z,7.10
2019-02-11T22:26:40.758Z,7.90
2019-02-11T22:29:12.793Z,7.90
2019-02-11T22:31:44.963Z,7.90
2019-02-11T22:34:18.429Z,7.90
2019-02-11T22:36:50.288Z,7.90
2019-02-11T22:39:22.182Z,7.90
2019-02-11T22:41:55.278Z,7.90
2019-02-11T22:44:28.413Z,7.80
2019-02-11T22:47:00.667Z,7.70
2019-02-11T22:49:32.583Z,7.70
2019-02-11T22:52:04.583Z,7.70
2019-02-11T22:54:36.461Z,7.60
2019-02-11T22:57:08.365Z,7.60
2019-02-11T22:59:40.456Z,7.60
2019-02-11T23:02:12.756Z,7.60
2019-02-11T23:04:44.788Z,7.70
2019-02-11T23:07:16.728Z,7.60
2019-02-11T23:09:48.765Z,7.60
2019-02-11T23:12:20.706Z,7.70
2019-02-11T23:14:52.645Z,7.70
2019-02-11T23:17:24.635Z,7.70
2019-02-11T23:19:56.665Z,7.70
2019-02-11T23:22:28.745Z,7.70
2019-02-11T23:25:00.540Z,7.70
2019-02-11T23:27:32.437Z,7.70
2019-02-11T23:30:13.051Z,7.70
2019-02-11T23:32:38.320Z,7.70
2019-02-11T23:35:10.182Z,7.60
2019-02-11T23:37:42.060Z,7.50
2019-02-11T23:40:13.917Z,7.50
2019-02-11T23:42:45.808Z,7.40
2019-02-11T23:45:17.742Z,7.40
2019-02-11T23:47:49.996Z,7.30
2019-02-11T23:50:21.815Z,7.30
2019-02-11T23:52:53.714Z,7.20
2019-02-11T23:55:25.801Z,7.20
2019-02-11T23:57:57.670Z,7.10
